EHQE

Hoorn-a Sea

Hoorn-a Sea, The Netherlands
METAR EHQE 162125Z AUTO 19020KT 6000 FEW004 SCT005 BKN007 07/06 Q1010 W///H///
Observed Flight Rules
Dec-16 @ 21:25 UTC (38 minutes ago) Instrument Flight Rules
Wind Visibility Clouds
190° at 20 knots 6,003 meters
  • Few at 400' AGL
  • Scattered at 500' AGL
  • Broken at 700' AGL
Temperatures Readings
Current 7°C / 45°F
Dewpoint 6°C / 43°F
Humidity 93%
Altimeter 29.82" Hg
Pressure 1010 hPa
Elevation 50
METAR EHQE 162125Z AUTO 19020KT 6000 FEW004 SCT005 BKN007 07/06 Q1010 W///H///
Observed Flight Rules
Dec-16 @ 21:25 UTC
(38 minutes ago)
IFR
Wind Visibility
190° at 20 knots 6,003 meters
Clouds
  • Few at 400' AGL
  • Scattered at 500' AGL
  • Broken at 700' AGL
Temperature Dewpoint
7°C / 45°F 6°C / 43°F
Humidity Altimeter Pressure
93% 29.82" Hg 1010 hPa